sensor_id;sensor_type;location;lat;lon;timestamp;P1;durP1;ratioP1;P2;durP2;ratioP2
17052;SDS011;8643;48.824;11.422;2023-03-25T00:00:17;3.50;;;1.80;;
17052;SDS011;8643;48.824;11.422;2023-03-25T00:02:47;3.37;;;1.67;;
17052;SDS011;8643;48.824;11.422;2023-03-25T00:05:18;2.93;;;1.80;;
17052;SDS011;8643;48.824;11.422;2023-03-25T00:07:49;3.10;;;1.63;;
17052;SDS011;8643;48.824;11.422;2023-03-25T00:10:19;2.37;;;1.70;;
17052;SDS011;8643;48.824;11.422;2023-03-25T00:12:48;3.07;;;1.50;;
17052;SDS011;8643;48.824;11.422;2023-03-25T00:15:19;4.77;;;1.70;;
17052;SDS011;8643;48.824;11.422;2023-03-25T00:17:49;3.03;;;1.80;;
17052;SDS011;8643;48.824;11.422;2023-03-25T00:20:18;3.07;;;1.53;;
17052;SDS011;8643;48.824;11.422;2023-03-25T00:22:47;2.33;;;1.50;;
17052;SDS011;8643;48.824;11.422;2023-03-25T00:25:16;2.60;;;1.70;;
17052;SDS011;8643;48.824;11.422;2023-03-25T00:27:46;2.93;;;1.70;;
17052;SDS011;8643;48.824;11.422;2023-03-25T00:30:16;4.60;;;2.43;;
17052;SDS011;8643;48.824;11.422;2023-03-25T00:32:47;4.90;;;2.03;;
17052;SDS011;8643;48.824;11.422;2023-03-25T00:35:18;3.60;;;1.73;;
17052;SDS011;8643;48.824;11.422;2023-03-25T00:37:50;4.20;;;2.20;;
17052;SDS011;8643;48.824;11.422;2023-03-25T00:40:26;4.10;;;1.73;;
17052;SDS011;8643;48.824;11.422;2023-03-25T00:43:00;5.13;;;2.00;;
17052;SDS011;8643;48.824;11.422;2023-03-25T00:45:32;2.83;;;1.80;;
17052;SDS011;8643;48.824;11.422;2023-03-25T00:48:01;3.10;;;1.80;;
17052;SDS011;8643;48.824;11.422;2023-03-25T00:50:32;2.57;;;1.70;;
17052;SDS011;8643;48.824;11.422;2023-03-25T00:53:01;2.90;;;1.83;;
17052;SDS011;8643;48.824;11.422;2023-03-25T00:55:30;4.97;;;2.00;;
17052;SDS011;8643;48.824;11.422;2023-03-25T00:57:59;4.50;;;2.00;;
17052;SDS011;8643;48.824;11.422;2023-03-25T01:00:27;6.60;;;2.10;;
17052;SDS011;8643;48.824;11.422;2023-03-25T01:02:57;5.63;;;2.30;;
17052;SDS011;8643;48.824;11.422;2023-03-25T01:05:29;4.80;;;2.03;;
17052;SDS011;8643;48.824;11.422;2023-03-25T01:07:58;4.03;;;2.13;;
17052;SDS011;8643;48.824;11.422;2023-03-25T01:10:28;6.40;;;2.20;;
17052;SDS011;8643;48.824;11.422;2023-03-25T01:12:56;2.80;;;1.70;;
17052;SDS011;8643;48.824;11.422;2023-03-25T01:15:25;5.97;;;2.10;;
17052;SDS011;8643;48.824;11.422;2023-03-25T01:17:53;5.47;;;2.17;;
17052;SDS011;8643;48.824;11.422;2023-03-25T01:20:24;6.93;;;2.10;;
17052;SDS011;8643;48.824;11.422;2023-03-25T01:22:53;5.43;;;1.90;;
17052;SDS011;8643;48.824;11.422;2023-03-25T01:25:21;5.57;;;2.10;;
17052;SDS011;8643;48.824;11.422;2023-03-25T01:27:50;4.70;;;2.23;;
17052;SDS011;8643;48.824;11.422;2023-03-25T01:30:19;3.70;;;2.20;;
17052;SDS011;8643;48.824;11.422;2023-03-25T01:32:47;5.27;;;2.00;;
17052;SDS011;8643;48.824;11.422;2023-03-25T01:35:16;5.17;;;1.80;;
17052;SDS011;8643;48.824;11.422;2023-03-25T01:37:46;5.80;;;2.27;;
17052;SDS011;8643;48.824;11.422;2023-03-25T01:40:16;4.77;;;2.03;;
17052;SDS011;8643;48.824;11.422;2023-03-25T01:42:46;4.43;;;2.40;;
17052;SDS011;8643;48.824;11.422;2023-03-25T01:48:01;4.17;;;2.50;;
17052;SDS011;8643;48.824;11.422;2023-03-25T01:50:35;4.60;;;2.20;;
17052;SDS011;8643;48.824;11.422;2023-03-25T01:53:11;5.67;;;2.23;;
17052;SDS011;8643;48.824;11.422;2023-03-25T01:55:39;4.77;;;2.40;;
17052;SDS011;8643;48.824;11.422;2023-03-25T01:58:10;4.53;;;2.37;;
17052;SDS011;8643;48.824;11.422;2023-03-25T02:00:44;4.17;;;2.23;;
17052;SDS011;8643;48.824;11.422;2023-03-25T02:03:17;5.23;;;2.37;;
17052;SDS011;8643;48.824;11.422;2023-03-25T02:05:52;4.77;;;2.37;;
17052;SDS011;8643;48.824;11.422;2023-03-25T02:08:30;6.27;;;2.20;;
17052;SDS011;8643;48.824;11.422;2023-03-25T02:11:05;7.33;;;2.73;;
17052;SDS011;8643;48.824;11.422;2023-03-25T02:13:35;6.27;;;2.37;;
17052;SDS011;8643;48.824;11.422;2023-03-25T02:16:12;6.27;;;2.60;;
17052;SDS011;8643;48.824;11.422;2023-03-25T02:19:04;5.13;;;2.60;;
17052;SDS011;8643;48.824;11.422;2023-03-25T02:22:14;8.17;;;2.70;;
17052;SDS011;8643;48.824;11.422;2023-03-25T02:25:22;3.07;;;1.90;;
17052;SDS011;8643;48.824;11.422;2023-03-25T02:28:13;4.30;;;1.57;;
17052;SDS011;8643;48.824;11.422;2023-03-25T02:37:28;1.83;;;1.07;;
17052;SDS011;8643;48.824;11.422;2023-03-25T02:40:27;2.50;;;0.67;;
17052;SDS011;8643;48.824;11.422;2023-03-25T02:43:03;2.50;;;0.80;;
17052;SDS011;8643;48.824;11.422;2023-03-25T02:45:42;1.90;;;0.80;;
17052;SDS011;8643;48.824;11.422;2023-03-25T02:48:17;2.37;;;0.90;;
17052;SDS011;8643;48.824;11.422;2023-03-25T02:50:52;2.03;;;1.23;;
17052;SDS011;8643;48.824;11.422;2023-03-25T02:53:26;3.20;;;1.20;;
17052;SDS011;8643;48.824;11.422;2023-03-25T02:56:01;2.40;;;1.30;;
17052;SDS011;8643;48.824;11.422;2023-03-25T02:58:36;3.43;;;1.50;;
17052;SDS011;8643;48.824;11.422;2023-03-25T03:01:09;2.90;;;1.70;;
17052;SDS011;8643;48.824;11.422;2023-03-25T03:03:40;2.40;;;1.40;;
17052;SDS011;8643;48.824;11.422;2023-03-25T03:06:11;2.40;;;1.47;;
17052;SDS011;8643;48.824;11.422;2023-03-25T03:11:55;2.67;;;1.30;;
17052;SDS011;8643;48.824;11.422;2023-03-25T03:14:45;3.03;;;1.60;;
17052;SDS011;8643;48.824;11.422;2023-03-25T03:17:48;3.60;;;1.60;;
17052;SDS011;8643;48.824;11.422;2023-03-25T03:20:34;1.93;;;1.50;;
17052;SDS011;8643;48.824;11.422;2023-03-25T03:23:11;3.33;;;2.10;;
17052;SDS011;8643;48.824;11.422;2023-03-25T03:25:53;4.63;;;2.00;;
17052;SDS011;8643;48.824;11.422;2023-03-25T03:28:32;4.40;;;2.27;;
17052;SDS011;8643;48.824;11.422;2023-03-25T03:31:13;4.93;;;2.20;;
17052;SDS011;8643;48.824;11.422;2023-03-25T03:34:12;4.70;;;2.30;;
17052;SDS011;8643;48.824;11.422;2023-03-25T03:36:50;5.83;;;2.80;;
17052;SDS011;8643;48.824;11.422;2023-03-25T03:39:24;5.93;;;3.13;;
17052;SDS011;8643;48.824;11.422;2023-03-25T03:42:01;6.20;;;3.20;;
17052;SDS011;8643;48.824;11.422;2023-03-25T03:44:38;6.13;;;2.60;;
17052;SDS011;8643;48.824;11.422;2023-03-25T03:47:14;5.60;;;2.60;;
17052;SDS011;8643;48.824;11.422;2023-03-25T03:49:51;4.60;;;2.20;;
17052;SDS011;8643;48.824;11.422;2023-03-25T03:52:26;3.70;;;2.23;;
17052;SDS011;8643;48.824;11.422;2023-03-25T03:54:59;5.37;;;2.30;;
17052;SDS011;8643;48.824;11.422;2023-03-25T03:57:39;3.27;;;1.90;;
17052;SDS011;8643;48.824;11.422;2023-03-25T04:00:14;4.47;;;2.20;;
17052;SDS011;8643;48.824;11.422;2023-03-25T04:02:48;4.93;;;1.90;;
17052;SDS011;8643;48.824;11.422;2023-03-25T04:05:24;4.93;;;1.70;;
17052;SDS011;8643;48.824;11.422;2023-03-25T04:07:58;3.50;;;1.70;;
17052;SDS011;8643;48.824;11.422;2023-03-25T04:10:38;2.40;;;1.40;;
17052;SDS011;8643;48.824;11.422;2023-03-25T04:13:20;3.87;;;1.50;;
17052;SDS011;8643;48.824;11.422;2023-03-25T04:15:50;2.10;;;1.00;;
17052;SDS011;8643;48.824;11.422;2023-03-25T04:18:19;2.70;;;1.20;;
17052;SDS011;8643;48.824;11.422;2023-03-25T04:20:48;3.13;;;1.37;;
17052;SDS011;8643;48.824;11.422;2023-03-25T04:23:17;2.70;;;1.60;;
17052;SDS011;8643;48.824;11.422;2023-03-25T04:25:46;1.80;;;1.10;;
17052;SDS011;8643;48.824;11.422;2023-03-25T04:28:20;4.33;;;1.10;;
17052;SDS011;8643;48.824;11.422;2023-03-25T04:30:50;1.50;;;1.00;;
17052;SDS011;8643;48.824;11.422;2023-03-25T04:33:21;2.83;;;1.10;;
17052;SDS011;8643;48.824;11.422;2023-03-25T04:35:50;3.93;;;1.03;;
17052;SDS011;8643;48.824;11.422;2023-03-25T04:38:19;3.17;;;1.10;;
17052;SDS011;8643;48.824;11.422;2023-03-25T04:40:48;2.33;;;1.03;;
17052;SDS011;8643;48.824;11.422;2023-03-25T04:43:16;1.80;;;0.90;;
17052;SDS011;8643;48.824;11.422;2023-03-25T04:45:46;2.10;;;1.00;;
17052;SDS011;8643;48.824;11.422;2023-03-25T04:48:21;2.83;;;1.00;;
17052;SDS011;8643;48.824;11.422;2023-03-25T04:50:55;3.07;;;1.00;;
17052;SDS011;8643;48.824;11.422;2023-03-25T04:53:25;1.87;;;0.90;;
17052;SDS011;8643;48.824;11.422;2023-03-25T04:55:55;3.77;;;0.80;;
17052;SDS011;8643;48.824;11.422;2023-03-25T04:58:24;3.23;;;0.90;;
17052;SDS011;8643;48.824;11.422;2023-03-25T05:00:55;1.77;;;0.90;;
17052;SDS011;8643;48.824;11.422;2023-03-25T05:03:31;2.43;;;0.87;;
17052;SDS011;8643;48.824;11.422;2023-03-25T05:06:00;1.33;;;0.60;;
17052;SDS011;8643;48.824;11.422;2023-03-25T05:08:29;2.67;;;0.70;;
17052;SDS011;8643;48.824;11.422;2023-03-25T05:10:57;2.33;;;0.47;;
17052;SDS011;8643;48.824;11.422;2023-03-25T05:13:26;0.87;;;0.50;;
17052;SDS011;8643;48.824;11.422;2023-03-25T05:15:56;1.63;;;0.50;;
17052;SDS011;8643;48.824;11.422;2023-03-25T05:18:25;2.53;;;0.53;;
17052;SDS011;8643;48.824;11.422;2023-03-25T05:20:53;3.37;;;0.60;;
17052;SDS011;8643;48.824;11.422;2023-03-25T05:23:22;1.10;;;0.50;;
17052;SDS011;8643;48.824;11.422;2023-03-25T05:25:51;3.17;;;0.60;;
17052;SDS011;8643;48.824;11.422;2023-03-25T05:28:21;1.07;;;0.40;;
17052;SDS011;8643;48.824;11.422;2023-03-25T05:30:50;1.03;;;0.50;;
17052;SDS011;8643;48.824;11.422;2023-03-25T05:33:21;1.60;;;0.60;;
17052;SDS011;8643;48.824;11.422;2023-03-25T05:35:49;0.83;;;0.40;;
17052;SDS011;8643;48.824;11.422;2023-03-25T05:38:18;3.07;;;0.50;;
17052;SDS011;8643;48.824;11.422;2023-03-25T05:40:47;1.47;;;0.53;;
17052;SDS011;8643;48.824;11.422;2023-03-25T05:43:16;1.20;;;0.30;;
17052;SDS011;8643;48.824;11.422;2023-03-25T05:45:48;1.83;;;0.50;;
17052;SDS011;8643;48.824;11.422;2023-03-25T05:48:17;1.30;;;0.50;;
17052;SDS011;8643;48.824;11.422;2023-03-25T05:50:47;4.07;;;0.50;;
17052;SDS011;8643;48.824;11.422;2023-03-25T05:53:15;1.03;;;0.60;;
17052;SDS011;8643;48.824;11.422;2023-03-25T05:55:46;2.77;;;0.50;;
17052;SDS011;8643;48.824;11.422;2023-03-25T05:58:17;0.97;;;0.47;;
17052;SDS011;8643;48.824;11.422;2023-03-25T06:00:46;1.27;;;0.53;;
17052;SDS011;8643;48.824;11.422;2023-03-25T06:03:16;1.60;;;0.50;;
17052;SDS011;8643;48.824;11.422;2023-03-25T06:05:48;3.87;;;1.20;;
17052;SDS011;8643;48.824;11.422;2023-03-25T06:08:18;1.77;;;0.73;;
17052;SDS011;8643;48.824;11.422;2023-03-25T06:10:53;1.53;;;0.60;;
17052;SDS011;8643;48.824;11.422;2023-03-25T06:13:26;0.87;;;0.43;;
17052;SDS011;8643;48.824;11.422;2023-03-25T06:15:55;1.23;;;0.70;;
17052;SDS011;8643;48.824;11.422;2023-03-25T06:18:25;2.67;;;0.60;;
17052;SDS011;8643;48.824;11.422;2023-03-25T06:20:55;1.77;;;0.80;;
17052;SDS011;8643;48.824;11.422;2023-03-25T06:23:24;0.73;;;0.50;;
17052;SDS011;8643;48.824;11.422;2023-03-25T06:25:53;1.90;;;0.50;;
17052;SDS011;8643;48.824;11.422;2023-03-25T06:28:24;0.80;;;0.40;;
17052;SDS011;8643;48.824;11.422;2023-03-25T06:30:52;1.73;;;0.90;;
17052;SDS011;8643;48.824;11.422;2023-03-25T06:33:22;1.17;;;0.70;;
17052;SDS011;8643;48.824;11.422;2023-03-25T06:36:11;0.83;;;0.40;;
17052;SDS011;8643;48.824;11.422;2023-03-25T06:38:44;1.13;;;0.50;;
17052;SDS011;8643;48.824;11.422;2023-03-25T06:41:14;1.77;;;0.40;;
17052;SDS011;8643;48.824;11.422;2023-03-25T06:43:52;1.57;;;0.60;;
17052;SDS011;8643;48.824;11.422;2023-03-25T06:46:44;1.93;;;0.60;;
17052;SDS011;8643;48.824;11.422;2023-03-25T06:49:15;2.03;;;0.70;;
17052;SDS011;8643;48.824;11.422;2023-03-25T06:51:45;2.53;;;0.70;;
17052;SDS011;8643;48.824;11.422;2023-03-25T06:54:14;1.47;;;0.70;;
17052;SDS011;8643;48.824;11.422;2023-03-25T06:56:43;3.13;;;0.60;;
17052;SDS011;8643;48.824;11.422;2023-03-25T06:59:12;2.17;;;0.70;;
17052;SDS011;8643;48.824;11.422;2023-03-25T07:01:40;2.50;;;0.80;;
17052;SDS011;8643;48.824;11.422;2023-03-25T07:04:09;1.30;;;0.70;;
17052;SDS011;8643;48.824;11.422;2023-03-25T07:06:38;2.47;;;0.77;;
17052;SDS011;8643;48.824;11.422;2023-03-25T07:09:09;1.20;;;0.60;;
17052;SDS011;8643;48.824;11.422;2023-03-25T07:11:37;3.37;;;0.90;;
17052;SDS011;8643;48.824;11.422;2023-03-25T07:14:06;2.97;;;1.00;;
17052;SDS011;8643;48.824;11.422;2023-03-25T07:16:34;1.23;;;0.80;;
17052;SDS011;8643;48.824;11.422;2023-03-25T07:19:03;2.97;;;0.90;;
17052;SDS011;8643;48.824;11.422;2023-03-25T07:21:31;1.30;;;0.73;;
17052;SDS011;8643;48.824;11.422;2023-03-25T07:24:00;2.20;;;1.03;;
17052;SDS011;8643;48.824;11.422;2023-03-25T07:26:30;3.37;;;1.10;;
17052;SDS011;8643;48.824;11.422;2023-03-25T07:28:58;3.33;;;1.07;;
17052;SDS011;8643;48.824;11.422;2023-03-25T07:31:28;3.80;;;1.33;;
17052;SDS011;8643;48.824;11.422;2023-03-25T07:33:57;4.17;;;1.10;;
17052;SDS011;8643;48.824;11.422;2023-03-25T07:36:28;3.80;;;1.00;;
17052;SDS011;8643;48.824;11.422;2023-03-25T07:38:56;2.30;;;1.10;;
17052;SDS011;8643;48.824;11.422;2023-03-25T07:41:25;1.40;;;1.00;;
17052;SDS011;8643;48.824;11.422;2023-03-25T07:44:24;1.43;;;0.80;;
17052;SDS011;8643;48.824;11.422;2023-03-25T07:46:52;2.43;;;0.90;;
17052;SDS011;8643;48.824;11.422;2023-03-25T07:49:21;1.50;;;0.67;;
17052;SDS011;8643;48.824;11.422;2023-03-25T07:51:50;4.03;;;1.00;;
17052;SDS011;8643;48.824;11.422;2023-03-25T07:54:18;3.00;;;0.90;;
17052;SDS011;8643;48.824;11.422;2023-03-25T07:56:47;2.80;;;0.87;;
17052;SDS011;8643;48.824;11.422;2023-03-25T07:59:18;4.83;;;0.80;;
17052;SDS011;8643;48.824;11.422;2023-03-25T08:01:48;4.73;;;0.83;;
17052;SDS011;8643;48.824;11.422;2023-03-25T08:04:17;3.20;;;0.80;;
17052;SDS011;8643;48.824;11.422;2023-03-25T08:06:45;0.50;;;0.40;;
17052;SDS011;8643;48.824;11.422;2023-03-25T08:09:14;2.90;;;0.80;;
17052;SDS011;8643;48.824;11.422;2023-03-25T08:11:42;4.03;;;0.77;;
17052;SDS011;8643;48.824;11.422;2023-03-25T08:14:11;2.00;;;0.70;;
17052;SDS011;8643;48.824;11.422;2023-03-25T08:16:39;2.63;;;0.80;;
17052;SDS011;8643;48.824;11.422;2023-03-25T08:19:09;1.67;;;0.63;;
17052;SDS011;8643;48.824;11.422;2023-03-25T08:21:38;2.00;;;0.50;;
17052;SDS011;8643;48.824;11.422;2023-03-25T08:24:06;1.83;;;0.60;;
17052;SDS011;8643;48.824;11.422;2023-03-25T08:26:36;2.90;;;0.80;;
17052;SDS011;8643;48.824;11.422;2023-03-25T08:29:05;1.20;;;0.70;;
17052;SDS011;8643;48.824;11.422;2023-03-25T08:31:35;2.87;;;0.70;;
17052;SDS011;8643;48.824;11.422;2023-03-25T08:34:05;1.67;;;0.60;;
17052;SDS011;8643;48.824;11.422;2023-03-25T08:36:35;2.23;;;0.50;;
17052;SDS011;8643;48.824;11.422;2023-03-25T08:39:05;1.83;;;0.60;;
17052;SDS011;8643;48.824;11.422;2023-03-25T08:41:37;4.93;;;0.70;;
17052;SDS011;8643;48.824;11.422;2023-03-25T08:44:06;1.03;;;0.60;;
17052;SDS011;8643;48.824;11.422;2023-03-25T08:46:34;2.70;;;0.63;;
17052;SDS011;8643;48.824;11.422;2023-03-25T08:49:03;1.60;;;0.70;;
17052;SDS011;8643;48.824;11.422;2023-03-25T08:51:33;5.07;;;0.90;;
17052;SDS011;8643;48.824;11.422;2023-03-25T08:54:03;3.28;;;0.73;;
17052;SDS011;8643;48.824;11.422;2023-03-25T08:56:31;2.10;;;0.80;;
17052;SDS011;8643;48.824;11.422;2023-03-25T08:59:00;3.17;;;0.70;;
17052;SDS011;8643;48.824;11.422;2023-03-25T09:01:28;1.42;;;0.60;;
17052;SDS011;8643;48.824;11.422;2023-03-25T09:03:57;2.08;;;0.70;;
17052;SDS011;8643;48.824;11.422;2023-03-25T09:06:25;2.40;;;0.60;;
17052;SDS011;8643;48.824;11.422;2023-03-25T09:09:14;1.30;;;0.60;;
17052;SDS011;8643;48.824;11.422;2023-03-25T09:11:43;1.30;;;0.45;;
17052;SDS011;8643;48.824;11.422;2023-03-25T09:14:12;2.83;;;0.70;;
17052;SDS011;8643;48.824;11.422;2023-03-25T09:16:40;3.70;;;0.70;;
17052;SDS011;8643;48.824;11.422;2023-03-25T09:19:09;1.40;;;0.60;;
17052;SDS011;8643;48.824;11.422;2023-03-25T09:21:37;2.27;;;0.83;;
17052;SDS011;8643;48.824;11.422;2023-03-25T09:24:06;2.70;;;0.40;;
17052;SDS011;8643;48.824;11.422;2023-03-25T09:26:37;3.17;;;0.80;;
17052;SDS011;8643;48.824;11.422;2023-03-25T09:29:06;4.30;;;1.20;;
17052;SDS011;8643;48.824;11.422;2023-03-25T09:31:34;1.13;;;0.60;;
17052;SDS011;8643;48.824;11.422;2023-03-25T09:34:03;1.83;;;0.50;;
17052;SDS011;8643;48.824;11.422;2023-03-25T09:36:32;2.43;;;0.60;;
17052;SDS011;8643;48.824;11.422;2023-03-25T09:39:02;1.60;;;0.67;;
17052;SDS011;8643;48.824;11.422;2023-03-25T09:41:41;4.90;;;0.80;;
17052;SDS011;8643;48.824;11.422;2023-03-25T09:44:32;2.13;;;0.50;;
17052;SDS011;8643;48.824;11.422;2023-03-25T09:47:13;1.60;;;0.50;;
17052;SDS011;8643;48.824;11.422;2023-03-25T09:49:46;2.60;;;0.90;;
17052;SDS011;8643;48.824;11.422;2023-03-25T09:52:21;1.77;;;0.70;;
17052;SDS011;8643;48.824;11.422;2023-03-25T09:54:56;1.10;;;0.57;;
17052;SDS011;8643;48.824;11.422;2023-03-25T09:57:35;1.17;;;0.50;;
17052;SDS011;8643;48.824;11.422;2023-03-25T10:00:16;4.33;;;1.90;;
17052;SDS011;8643;48.824;11.422;2023-03-25T10:02:50;3.00;;;0.53;;
17052;SDS011;8643;48.824;11.422;2023-03-25T10:05:38;2.80;;;0.50;;
17052;SDS011;8643;48.824;11.422;2023-03-25T10:08:43;0.50;;;0.40;;
17052;SDS011;8643;48.824;11.422;2023-03-25T10:11:31;0.83;;;0.57;;
17052;SDS011;8643;48.824;11.422;2023-03-25T10:14:12;1.70;;;0.60;;
17052;SDS011;8643;48.824;11.422;2023-03-25T10:16:51;1.63;;;0.52;;
17052;SDS011;8643;48.824;11.422;2023-03-25T10:19:42;0.93;;;0.50;;
17052;SDS011;8643;48.824;11.422;2023-03-25T10:22:26;2.22;;;0.50;;
17052;SDS011;8643;48.824;11.422;2023-03-25T10:25:04;1.48;;;0.60;;
17052;SDS011;8643;48.824;11.422;2023-03-25T10:27:41;1.33;;;0.60;;
17052;SDS011;8643;48.824;11.422;2023-03-25T10:30:15;1.30;;;0.55;;
17052;SDS011;8643;48.824;11.422;2023-03-25T10:32:49;2.90;;;0.70;;
17052;SDS011;8643;48.824;11.422;2023-03-25T10:35:23;1.85;;;0.55;;
17052;SDS011;8643;48.824;11.422;2023-03-25T10:37:57;1.00;;;0.50;;
17052;SDS011;8643;48.824;11.422;2023-03-25T10:40:37;1.10;;;0.57;;
17052;SDS011;8643;48.824;11.422;2023-03-25T10:43:12;3.27;;;0.80;;
17052;SDS011;8643;48.824;11.422;2023-03-25T10:45:53;2.30;;;0.80;;
17052;SDS011;8643;48.824;11.422;2023-03-25T10:48:33;1.30;;;0.60;;
17052;SDS011;8643;48.824;11.422;2023-03-25T10:51:03;2.03;;;0.60;;
17052;SDS011;8643;48.824;11.422;2023-03-25T10:53:37;1.77;;;0.30;;
17052;SDS011;8643;48.824;11.422;2023-03-25T10:56:10;1.80;;;0.57;;
17052;SDS011;8643;48.824;11.422;2023-03-25T10:58:44;1.17;;;0.50;;
17052;SDS011;8643;48.824;11.422;2023-03-25T11:01:20;1.57;;;0.50;;
17052;SDS011;8643;48.824;11.422;2023-03-25T11:04:01;0.83;;;0.60;;
17052;SDS011;8643;48.824;11.422;2023-03-25T11:06:33;1.60;;;0.60;;
17052;SDS011;8643;48.824;11.422;2023-03-25T11:09:11;1.63;;;0.60;;
17052;SDS011;8643;48.824;11.422;2023-03-25T11:11:44;2.83;;;0.67;;
17052;SDS011;8643;48.824;11.422;2023-03-25T11:14:14;2.23;;;0.83;;
17052;SDS011;8643;48.824;11.422;2023-03-25T11:16:50;1.67;;;0.80;;
17052;SDS011;8643;48.824;11.422;2023-03-25T11:19:24;0.80;;;0.60;;
17052;SDS011;8643;48.824;11.422;2023-03-25T11:21:57;2.63;;;0.90;;
17052;SDS011;8643;48.824;11.422;2023-03-25T11:24:39;3.33;;;0.80;;
17052;SDS011;8643;48.824;11.422;2023-03-25T11:27:15;1.77;;;0.67;;
17052;SDS011;8643;48.824;11.422;2023-03-25T11:29:49;2.77;;;0.80;;
17052;SDS011;8643;48.824;11.422;2023-03-25T11:32:24;1.57;;;0.70;;
17052;SDS011;8643;48.824;11.422;2023-03-25T11:35:00;1.30;;;0.70;;
17052;SDS011;8643;48.824;11.422;2023-03-25T11:37:35;2.37;;;0.90;;
17052;SDS011;8643;48.824;11.422;2023-03-25T11:40:13;1.27;;;0.70;;
17052;SDS011;8643;48.824;11.422;2023-03-25T11:42:43;3.00;;;0.70;;
17052;SDS011;8643;48.824;11.422;2023-03-25T11:45:18;4.20;;;0.80;;
17052;SDS011;8643;48.824;11.422;2023-03-25T11:47:51;2.30;;;0.90;;
17052;SDS011;8643;48.824;11.422;2023-03-25T11:50:26;4.63;;;1.00;;
17052;SDS011;8643;48.824;11.422;2023-03-25T11:52:59;2.27;;;0.87;;
17052;SDS011;8643;48.824;11.422;2023-03-25T11:55:31;3.83;;;1.03;;
17052;SDS011;8643;48.824;11.422;2023-03-25T11:58:12;1.60;;;0.70;;
17052;SDS011;8643;48.824;11.422;2023-03-25T12:00:46;2.50;;;0.67;;
17052;SDS011;8643;48.824;11.422;2023-03-25T12:03:19;1.33;;;0.80;;
17052;SDS011;8643;48.824;11.422;2023-03-25T12:05:57;2.63;;;0.70;;
17052;SDS011;8643;48.824;11.422;2023-03-25T12:08:28;1.05;;;0.60;;
17052;SDS011;8643;48.824;11.422;2023-03-25T12:11:08;1.40;;;0.77;;
17052;SDS011;8643;48.824;11.422;2023-03-25T12:13:46;1.48;;;0.60;;
17052;SDS011;8643;48.824;11.422;2023-03-25T12:16:43;2.90;;;0.77;;
17052;SDS011;8643;48.824;11.422;2023-03-25T12:19:26;2.23;;;0.80;;
17052;SDS011;8643;48.824;11.422;2023-03-25T12:22:09;1.07;;;0.50;;
17052;SDS011;8643;48.824;11.422;2023-03-25T12:25:01;1.37;;;0.50;;
17052;SDS011;8643;48.824;11.422;2023-03-25T12:27:50;0.53;;;0.40;;
17052;SDS011;8643;48.824;11.422;2023-03-25T12:30:38;1.10;;;0.40;;
17052;SDS011;8643;48.824;11.422;2023-03-25T12:33:23;2.80;;;0.60;;
17052;SDS011;8643;48.824;11.422;2023-03-25T12:39:14;0.87;;;0.60;;
17052;SDS011;8643;48.824;11.422;2023-03-25T12:42:11;1.50;;;0.50;;
17052;SDS011;8643;48.824;11.422;2023-03-25T12:48:07;0.80;;;0.50;;
17052;SDS011;8643;48.824;11.422;2023-03-25T12:50:50;0.43;;;0.40;;
17052;SDS011;8643;48.824;11.422;2023-03-25T12:53:35;0.80;;;0.50;;
17052;SDS011;8643;48.824;11.422;2023-03-25T12:56:25;0.65;;;0.60;;
17052;SDS011;8643;48.824;11.422;2023-03-25T13:02:19;1.48;;;0.43;;
17052;SDS011;8643;48.824;11.422;2023-03-25T13:05:03;0.57;;;0.50;;
17052;SDS011;8643;48.824;11.422;2023-03-25T13:07:45;0.55;;;0.50;;
17052;SDS011;8643;48.824;11.422;2023-03-25T13:10:22;0.43;;;0.40;;
17052;SDS011;8643;48.824;11.422;2023-03-25T13:12:58;0.73;;;0.50;;
17052;SDS011;8643;48.824;11.422;2023-03-25T13:15:31;0.35;;;0.30;;
17052;SDS011;8643;48.824;11.422;2023-03-25T13:18:08;0.70;;;0.50;;
17052;SDS011;8643;48.824;11.422;2023-03-25T13:20:46;1.43;;;0.50;;
17052;SDS011;8643;48.824;11.422;2023-03-25T13:23:25;1.90;;;0.60;;
17052;SDS011;8643;48.824;11.422;2023-03-25T13:26:00;0.90;;;0.60;;
17052;SDS011;8643;48.824;11.422;2023-03-25T13:28:38;1.93;;;0.70;;
17052;SDS011;8643;48.824;11.422;2023-03-25T13:31:13;1.20;;;0.50;;
17052;SDS011;8643;48.824;11.422;2023-03-25T13:33:47;2.93;;;0.80;;
17052;SDS011;8643;48.824;11.422;2023-03-25T13:36:24;2.10;;;0.60;;
17052;SDS011;8643;48.824;11.422;2023-03-25T13:38:58;1.70;;;0.77;;
17052;SDS011;8643;48.824;11.422;2023-03-25T13:41:37;3.70;;;0.90;;
17052;SDS011;8643;48.824;11.422;2023-03-25T13:44:11;1.97;;;0.90;;
17052;SDS011;8643;48.824;11.422;2023-03-25T13:46:47;2.60;;;1.27;;
17052;SDS011;8643;48.824;11.422;2023-03-25T13:49:21;4.10;;;1.00;;
17052;SDS011;8643;48.824;11.422;2023-03-25T13:51:57;2.70;;;0.77;;
17052;SDS011;8643;48.824;11.422;2023-03-25T13:54:26;3.30;;;1.10;;
17052;SDS011;8643;48.824;11.422;2023-03-25T13:57:09;1.53;;;0.80;;
17052;SDS011;8643;48.824;11.422;2023-03-25T14:00:07;0.87;;;0.60;;
17052;SDS011;8643;48.824;11.422;2023-03-25T14:03:20;2.20;;;0.87;;
17052;SDS011;8643;48.824;11.422;2023-03-25T14:13:08;0.73;;;0.40;;
17052;SDS011;8643;48.824;11.422;2023-03-25T14:15:42;1.50;;;0.60;;
17052;SDS011;8643;48.824;11.422;2023-03-25T14:18:23;1.10;;;0.40;;
17052;SDS011;8643;48.824;11.422;2023-03-25T14:20:57;1.05;;;0.50;;
17052;SDS011;8643;48.824;11.422;2023-03-25T14:23:41;0.68;;;0.50;;
17052;SDS011;8643;48.824;11.422;2023-03-25T14:26:10;1.75;;;0.40;;
17052;SDS011;8643;48.824;11.422;2023-03-25T14:28:41;3.90;;;0.50;;
17052;SDS011;8643;48.824;11.422;2023-03-25T14:31:23;1.08;;;0.50;;
17052;SDS011;8643;48.824;11.422;2023-03-25T14:37:09;1.75;;;0.40;;
17052;SDS011;8643;48.824;11.422;2023-03-25T14:39:53;0.47;;;0.30;;
17052;SDS011;8643;48.824;11.422;2023-03-25T14:42:26;1.13;;;0.50;;
17052;SDS011;8643;48.824;11.422;2023-03-25T14:48:21;1.25;;;0.35;;
17052;SDS011;8643;48.824;11.422;2023-03-25T14:51:07;2.08;;;0.50;;
17052;SDS011;8643;48.824;11.422;2023-03-25T14:54:14;1.50;;;0.60;;
17052;SDS011;8643;48.824;11.422;2023-03-25T14:56:52;4.40;;;0.83;;
17052;SDS011;8643;48.824;11.422;2023-03-25T14:59:28;1.63;;;0.50;;
17052;SDS011;8643;48.824;11.422;2023-03-25T15:02:04;2.97;;;0.67;;
17052;SDS011;8643;48.824;11.422;2023-03-25T15:04:43;3.83;;;0.70;;
17052;SDS011;8643;48.824;11.422;2023-03-25T15:07:19;2.07;;;0.50;;
17052;SDS011;8643;48.824;11.422;2023-03-25T15:10:23;2.87;;;0.50;;
17052;SDS011;8643;48.824;11.422;2023-03-25T15:12:59;4.80;;;0.80;;
17052;SDS011;8643;48.824;11.422;2023-03-25T15:15:32;1.77;;;0.60;;
17052;SDS011;8643;48.824;11.422;2023-03-25T15:21:33;0.40;;;0.40;;
17052;SDS011;8643;48.824;11.422;2023-03-25T15:24:52;1.47;;;0.40;;
17052;SDS011;8643;48.824;11.422;2023-03-25T15:33:58;1.40;;;0.40;;
17052;SDS011;8643;48.824;11.422;2023-03-25T15:36:48;0.93;;;0.40;;
17052;SDS011;8643;48.824;11.422;2023-03-25T15:40:04;1.40;;;0.40;;
17052;SDS011;8643;48.824;11.422;2023-03-25T15:42:59;0.90;;;0.50;;
17052;SDS011;8643;48.824;11.422;2023-03-25T15:46:32;0.40;;;0.30;;
17052;SDS011;8643;48.824;11.422;2023-03-25T15:49:55;0.40;;;0.40;;
17052;SDS011;8643;48.824;11.422;2023-03-25T15:53:12;1.67;;;0.47;;
17052;SDS011;8643;48.824;11.422;2023-03-25T15:56:09;1.23;;;0.60;;
17052;SDS011;8643;48.824;11.422;2023-03-25T15:58:44;0.60;;;0.57;;
17052;SDS011;8643;48.824;11.422;2023-03-25T16:01:21;2.10;;;0.70;;
17052;SDS011;8643;48.824;11.422;2023-03-25T16:03:56;0.93;;;0.57;;
17052;SDS011;8643;48.824;11.422;2023-03-25T16:06:30;2.77;;;0.60;;
17052;SDS011;8643;48.824;11.422;2023-03-25T16:09:11;1.70;;;0.50;;
17052;SDS011;8643;48.824;11.422;2023-03-25T16:11:45;1.00;;;0.50;;
17052;SDS011;8643;48.824;11.422;2023-03-25T16:14:15;1.10;;;0.70;;
17052;SDS011;8643;48.824;11.422;2023-03-25T16:16:48;1.10;;;0.80;;
17052;SDS011;8643;48.824;11.422;2023-03-25T16:19:22;1.03;;;0.50;;
17052;SDS011;8643;48.824;11.422;2023-03-25T16:21:58;4.63;;;0.40;;